TRA40K EHAM-LGMK
Flight info
| Callsign | TRA40K |
|---|---|
| Flight time | N/A |
| Altitude | 37000 |
| Route | EDUPO Z739 MISGO DCT DIXAT DCT PODIP DCT TESGA DCT DINKU DCT BESNI DCT LATLO DCT OBEDI DCT BERTA DCT TEBLI DCT TIVNU DCT MEDUX UM867 KOGAT DCT TALAS UM749 SKP UN137 AGAPU |
| Aircraft | B738/M-SDE2E3FGHIJ1RWXYZ/LB1 |
Departure
| Time | N/A |
|---|---|
| Airport | Amsterdam Airport Schiphol (EHAM) |
Arrival
| Time | 2026-04-25 07:18 |
|---|---|
| Airport | Mykonos Island National Airport (LGMK) |
| Time | Latitude | Longitude | Altitude | Speed | Heading |
|---|---|---|---|---|---|
| 2026-04-25 06:31 | 40.22940 | 22.68998 | 37073 ft | 443 kts | 141° |
| 2026-04-25 06:32 | 40.17864 | 22.73562 | 37070 ft | 442 kts | 142° |
| 2026-04-25 06:32 | 40.12794 | 22.78112 | 37072 ft | 442 kts | 142° |
| 2026-04-25 06:33 | 40.07731 | 22.82648 | 37071 ft | 441 kts | 142° |
| 2026-04-25 06:33 | 40.02729 | 22.87120 | 37073 ft | 440 kts | 142° |
| 2026-04-25 06:34 | 39.97678 | 22.91628 | 37072 ft | 440 kts | 142° |
| 2026-04-25 06:34 | 39.92630 | 22.96126 | 37070 ft | 439 kts | 142° |
| 2026-04-25 06:35 | 39.87589 | 23.00608 | 37068 ft | 439 kts | 142° |
| 2026-04-25 06:35 | 39.82547 | 23.05084 | 37070 ft | 438 kts | 142° |
| 2026-04-25 06:36 | 39.77510 | 23.09548 | 37067 ft | 438 kts | 142° |
| 2026-04-25 06:36 | 39.72480 | 23.13997 | 37065 ft | 437 kts | 142° |
| 2026-04-25 06:37 | 39.67450 | 23.18437 | 37068 ft | 437 kts | 142° |
| 2026-04-25 06:37 | 39.62422 | 23.22869 | 37065 ft | 436 kts | 142° |
| 2026-04-25 06:38 | 39.57403 | 23.27284 | 37065 ft | 436 kts | 142° |
| 2026-04-25 06:38 | 39.52384 | 23.31692 | 37061 ft | 436 kts | 142° |
| 2026-04-25 06:39 | 39.47371 | 23.36087 | 37065 ft | 435 kts | 142° |
| 2026-04-25 06:39 | 39.43200 | 23.39737 | 37055 ft | 435 kts | 142° |
| 2026-04-25 06:40 | 39.38188 | 23.44118 | 37055 ft | 435 kts | 142° |
| 2026-04-25 06:40 | 39.33205 | 23.48464 | 37055 ft | 435 kts | 142° |
| 2026-04-25 06:41 | 39.28180 | 23.52841 | 37051 ft | 436 kts | 142° |
| 2026-04-25 06:41 | 39.23157 | 23.57209 | 37049 ft | 436 kts | 142° |
| 2026-04-25 06:42 | 39.18118 | 23.61582 | 37050 ft | 437 kts | 142° |
| 2026-04-25 06:42 | 39.13178 | 23.66132 | 37051 ft | 437 kts | 140° |
| 2026-04-25 06:43 | 39.08307 | 23.70811 | 37060 ft | 437 kts | 140° |
| 2026-04-25 06:43 | 39.03417 | 23.75483 | 37049 ft | 437 kts | 140° |
| 2026-04-25 06:43 | 39.01034 | 23.77739 | 37030 ft | 424 kts | 140° |
| 2026-04-25 06:44 | 38.98696 | 23.79942 | 37036 ft | 410 kts | 140° |
| 2026-04-25 06:44 | 38.96436 | 23.82068 | 37027 ft | 395 kts | 140° |
| 2026-04-25 06:44 | 38.94246 | 23.84127 | 37047 ft | 387 kts | 140° |
| 2026-04-25 06:45 | 38.89878 | 23.88244 | 37070 ft | 394 kts | 140° |
| 2026-04-25 06:45 | 38.85394 | 23.92464 | 37059 ft | 405 kts | 140° |
| 2026-04-25 06:46 | 38.80821 | 23.96753 | 37062 ft | 409 kts | 140° |
| 2026-04-25 06:46 | 38.76207 | 24.01070 | 37056 ft | 411 kts | 140° |
| 2026-04-25 06:47 | 38.71630 | 24.05344 | 37032 ft | 402 kts | 140° |
| 2026-04-25 06:47 | 38.67128 | 24.09543 | 37053 ft | 400 kts | 140° |
| 2026-04-25 06:48 | 38.62658 | 24.13710 | 37049 ft | 401 kts | 141° |
| 2026-04-25 06:48 | 38.58138 | 24.17916 | 37046 ft | 402 kts | 141° |
| 2026-04-25 06:49 | 38.53613 | 24.22119 | 37043 ft | 403 kts | 141° |
| 2026-04-25 06:49 | 38.49078 | 24.26325 | 37037 ft | 403 kts | 141° |
| 2026-04-25 06:50 | 38.44537 | 24.30530 | 37037 ft | 404 kts | 141° |
| 2026-04-25 06:50 | 38.39884 | 24.34566 | 37037 ft | 406 kts | 146° |
| 2026-04-25 06:51 | 38.35012 | 24.38225 | 37036 ft | 407 kts | 147° |
| 2026-04-25 06:51 | 38.30121 | 24.41844 | 37032 ft | 407 kts | 147° |
| 2026-04-25 06:52 | 38.25234 | 24.45496 | 37028 ft | 407 kts | 147° |
| 2026-04-25 06:52 | 38.20354 | 24.49163 | 37031 ft | 407 kts | 147° |
| 2026-04-25 06:53 | 38.15479 | 24.52828 | 37028 ft | 407 kts | 147° |
| 2026-04-25 06:53 | 38.10602 | 24.56490 | 37032 ft | 407 kts | 147° |
| 2026-04-25 06:54 | 38.05722 | 24.60150 | 37013 ft | 408 kts | 147° |
| 2026-04-25 06:54 | 38.00845 | 24.63798 | 37018 ft | 406 kts | 147° |
| 2026-04-25 06:55 | 37.96021 | 24.67403 | 37009 ft | 405 kts | 147° |
| 2026-04-25 06:55 | 37.91179 | 24.71016 | 37014 ft | 403 kts | 148° |
| 2026-04-25 06:56 | 37.86354 | 24.74610 | 37004 ft | 402 kts | 148° |
| 2026-04-25 06:56 | 37.81544 | 24.78188 | 36999 ft | 400 kts | 148° |
| 2026-04-25 06:57 | 37.76757 | 24.81743 | 36990 ft | 399 kts | 148° |
| 2026-04-25 06:57 | 37.72017 | 24.85258 | 36523 ft | 392 kts | 148° |
| 2026-04-25 06:57 | 37.69661 | 24.87003 | 35945 ft | 394 kts | 148° |
| 2026-04-25 06:58 | 37.67256 | 24.88784 | 34946 ft | 408 kts | 149° |
| 2026-04-25 06:58 | 37.64783 | 24.90614 | 34305 ft | 412 kts | 149° |
| 2026-04-25 06:58 | 37.62322 | 24.92432 | 33971 ft | 408 kts | 149° |
| 2026-04-25 06:58 | 37.59890 | 24.94228 | 33498 ft | 405 kts | 149° |
| 2026-04-25 06:59 | 37.57457 | 24.96023 | 32951 ft | 405 kts | 149° |
| 2026-04-25 06:59 | 37.55024 | 24.97817 | 32420 ft | 404 kts | 149° |
| 2026-04-25 06:59 | 37.52601 | 24.99604 | 31897 ft | 403 kts | 149° |
| 2026-04-25 06:59 | 37.50178 | 25.01388 | 31387 ft | 403 kts | 149° |
| 2026-04-25 07:00 | 37.47765 | 25.03162 | 30888 ft | 402 kts | 150° |
| 2026-04-25 07:00 | 37.45194 | 25.04522 | 30372 ft | 402 kts | 166° |
| 2026-04-25 07:00 | 37.42417 | 25.04878 | 29866 ft | 402 kts | 182° |
| 2026-04-25 07:00 | 37.39675 | 25.04228 | 29293 ft | 403 kts | 198° |
| 2026-04-25 07:01 | 37.37192 | 25.02605 | 28741 ft | 405 kts | 215° |
| 2026-04-25 07:01 | 37.35191 | 25.00124 | 28198 ft | 407 kts | 233° |
| 2026-04-25 07:01 | 37.33859 | 24.96989 | 27666 ft | 408 kts | 250° |
| 2026-04-25 07:01 | 37.33330 | 24.93498 | 27145 ft | 409 kts | 268° |
| 2026-04-25 07:02 | 37.33652 | 24.89966 | 26635 ft | 408 kts | 286° |
| 2026-04-25 07:02 | 37.34789 | 24.86719 | 26150 ft | 406 kts | 303° |
| 2026-04-25 07:02 | 37.36555 | 24.83987 | 25664 ft | 402 kts | 320° |
| 2026-04-25 07:02 | 37.38815 | 24.81965 | 25189 ft | 398 kts | 331° |
| 2026-04-25 07:03 | 37.41201 | 24.80219 | 24710 ft | 397 kts | 332° |
| 2026-04-25 07:03 | 37.43600 | 24.78483 | 24183 ft | 398 kts | 332° |
| 2026-04-25 07:03 | 37.45986 | 24.76711 | 23650 ft | 399 kts | 332° |
| 2026-04-25 07:03 | 37.48368 | 24.74979 | 23001 ft | 391 kts | 339° |
| 2026-04-25 07:04 | 37.50935 | 24.74078 | 22370 ft | 379 kts | 358° |
| 2026-04-25 07:04 | 37.53521 | 24.74174 | 21765 ft | 367 kts | 13° |
| 2026-04-25 07:04 | 37.55895 | 24.75076 | 21182 ft | 358 kts | 27° |
| 2026-04-25 07:04 | 37.57990 | 24.76679 | 20605 ft | 349 kts | 41° |
| 2026-04-25 07:05 | 37.59677 | 24.78886 | 20027 ft | 342 kts | 56° |
| 2026-04-25 07:05 | 37.60808 | 24.81442 | 19481 ft | 337 kts | 70° |
| 2026-04-25 07:05 | 37.61394 | 24.84270 | 18938 ft | 332 kts | 84° |
| 2026-04-25 07:05 | 37.61404 | 24.87167 | 18396 ft | 329 kts | 97° |
| 2026-04-25 07:06 | 37.60843 | 24.89991 | 17792 ft | 327 kts | 111° |
| 2026-04-25 07:06 | 37.59815 | 24.92491 | 17204 ft | 326 kts | 123° |
| 2026-04-25 07:06 | 37.58357 | 24.94675 | 16613 ft | 325 kts | 134° |
| 2026-04-25 07:06 | 37.56603 | 24.96471 | 16026 ft | 325 kts | 145° |
| 2026-04-25 07:07 | 37.54673 | 24.97951 | 15463 ft | 324 kts | 147° |
| 2026-04-25 07:07 | 37.52744 | 24.99386 | 14905 ft | 322 kts | 147° |
| 2026-04-25 07:07 | 37.50824 | 25.00830 | 14351 ft | 320 kts | 147° |
| 2026-04-25 07:07 | 37.48925 | 25.02272 | 13813 ft | 318 kts | 147° |
| 2026-04-25 07:08 | 37.47029 | 25.03685 | 13197 ft | 317 kts | 154° |
| 2026-04-25 07:08 | 37.44951 | 25.04631 | 12620 ft | 316 kts | 157° |
| 2026-04-25 07:08 | 37.42914 | 25.05643 | 12025 ft | 314 kts | 155° |
| 2026-04-25 07:08 | 37.40903 | 25.06683 | 11451 ft | 312 kts | 155° |
| 2026-04-25 07:09 | 37.38903 | 25.07724 | 10885 ft | 310 kts | 155° |
| 2026-04-25 07:09 | 37.36915 | 25.08760 | 10327 ft | 308 kts | 155° |
| 2026-04-25 07:09 | 37.34941 | 25.09784 | 9768 ft | 306 kts | 155° |
| 2026-04-25 07:09 | 37.32979 | 25.10797 | 9166 ft | 304 kts | 155° |
| 2026-04-25 07:10 | 37.31026 | 25.11803 | 8572 ft | 302 kts | 155° |
| 2026-04-25 07:10 | 37.29090 | 25.12797 | 7989 ft | 300 kts | 155° |
| 2026-04-25 07:10 | 37.27162 | 25.13785 | 7415 ft | 298 kts | 155° |
| 2026-04-25 07:10 | 37.25250 | 25.14765 | 6852 ft | 296 kts | 155° |
| 2026-04-25 07:11 | 37.23389 | 25.15833 | 6269 ft | 292 kts | 144° |
| 2026-04-25 07:11 | 37.22005 | 25.17623 | 5697 ft | 285 kts | 118° |
| 2026-04-25 07:11 | 37.21443 | 25.19931 | 5296 ft | 274 kts | 91° |
| 2026-04-25 07:11 | 37.21726 | 25.22248 | 4907 ft | 267 kts | 72° |
| 2026-04-25 07:12 | 37.22364 | 25.24408 | 4509 ft | 262 kts | 69° |
| 2026-04-25 07:12 | 37.23862 | 25.28255 | 4258 ft | 232 kts | 65° |
| 2026-04-25 07:12 | 37.24447 | 25.30089 | 4144 ft | 223 kts | 70° |
| 2026-04-25 07:13 | 37.24950 | 25.31840 | 4075 ft | 211 kts | 70° |
| 2026-04-25 07:13 | 37.25440 | 25.33513 | 3966 ft | 198 kts | 70° |
| 2026-04-25 07:13 | 37.25910 | 25.35092 | 3870 ft | 191 kts | 69° |
| 2026-04-25 07:13 | 37.26368 | 25.36614 | 3801 ft | 181 kts | 69° |
| 2026-04-25 07:14 | 37.26821 | 25.38113 | 3466 ft | 181 kts | 69° |
| 2026-04-25 07:14 | 37.27262 | 25.39536 | 3369 ft | 169 kts | 64° |
| 2026-04-25 07:14 | 37.28105 | 25.40493 | 3326 ft | 167 kts | 15° |
| 2026-04-25 07:14 | 37.29255 | 25.40498 | 3188 ft | 166 kts | 2° |
| 2026-04-25 07:15 | 37.30412 | 25.40400 | 2948 ft | 167 kts | 352° |
| 2026-04-25 07:15 | 37.31512 | 25.40056 | 2741 ft | 163 kts | 347° |
| 2026-04-25 07:15 | 37.32586 | 25.39634 | 2537 ft | 154 kts | 345° |
| 2026-04-25 07:15 | 37.33555 | 25.39222 | 2366 ft | 148 kts | 345° |
| 2026-04-25 07:16 | 37.34542 | 25.38793 | 2130 ft | 146 kts | 345° |
| 2026-04-25 07:16 | 37.35472 | 25.38384 | 1935 ft | 141 kts | 345° |
| 2026-04-25 07:16 | 37.36391 | 25.37977 | 1751 ft | 140 kts | 346° |
| 2026-04-25 07:16 | 37.37309 | 25.37573 | 1565 ft | 140 kts | 345° |
| 2026-04-25 07:17 | 37.38219 | 25.37170 | 1411 ft | 137 kts | 344° |
| 2026-04-25 07:17 | 37.39123 | 25.36773 | 1224 ft | 139 kts | 344° |
| 2026-04-25 07:17 | 37.40032 | 25.36366 | 1036 ft | 138 kts | 343° |
| 2026-04-25 07:17 | 37.40930 | 25.35970 | 836 ft | 136 kts | 343° |
| 2026-04-25 07:18 | 37.41823 | 25.35576 | 639 ft | 135 kts | 343° |
| 2026-04-25 07:18 | 37.42696 | 25.35183 | 461 ft | 132 kts | 342° |
| 2026-04-25 07:18 | 37.43505 | 25.34827 | 409 ft | 100 kts | 340° |
| 2026-04-25 07:18 | 37.43947 | 25.34631 | 410 ft | 40 kts | 340° |
| 2026-04-25 07:19 | 37.44168 | 25.34532 | 406 ft | 18 kts | 339° |
| 2026-04-25 07:19 | 37.44266 | 25.34456 | 404 ft | 12 kts | 324° |
| 2026-04-25 07:19 | 37.44295 | 25.34499 | 404 ft | 9 kts | 137° |
| 2026-04-25 07:19 | 37.44233 | 25.34515 | 405 ft | 9 kts | 170° |
| 2026-04-25 07:20 | 37.44170 | 25.34531 | 406 ft | 9 kts | 161° |
| 2026-04-25 07:20 | 37.44102 | 25.34562 | 407 ft | 12 kts | 160° |
| 2026-04-25 07:20 | 37.44018 | 25.34600 | 409 ft | 14 kts | 160° |
| 2026-04-25 07:20 | 37.43918 | 25.34643 | 411 ft | 17 kts | 161° |
| 2026-04-25 07:21 | 37.43796 | 25.34697 | 410 ft | 21 kts | 160° |
| 2026-04-25 07:21 | 37.43670 | 25.34704 | 409 ft | 20 kts | 206° |
| 2026-04-25 07:21 | 37.43556 | 25.34689 | 407 ft | 17 kts | 160° |
| 2026-04-25 07:21 | 37.43492 | 25.34717 | 407 ft | 5 kts | 166° |
| 2026-04-25 07:22 | 37.43471 | 25.34687 | 405 ft | 5 kts | 252° |
| 2026-04-25 07:22 | 37.43465 | 25.34666 | 406 ft | 0 kts | 251° |